createdAt,value
2017-05-27T00:00:52.261Z,1017.94
2017-05-27T00:01:52.287Z,1017.98
2017-05-27T00:02:52.309Z,1017.92
2017-05-27T00:03:52.334Z,1017.96
2017-05-27T00:04:52.359Z,1017.94
2017-05-27T00:05:52.384Z,1017.95
2017-05-27T00:06:52.407Z,1017.94
2017-05-27T00:07:52.432Z,1017.97
2017-05-27T00:08:52.456Z,1017.98
2017-05-27T00:09:52.481Z,1017.99
2017-05-27T00:10:52.506Z,1017.97
2017-05-27T00:12:52.554Z,1017.99
2017-05-27T00:13:52.578Z,1018.01
2017-05-27T00:14:52.602Z,1017.96
2017-05-27T00:15:52.627Z,1018.01
2017-05-27T00:16:52.651Z,1017.98
2017-05-27T00:17:52.675Z,1017.97
2017-05-27T00:18:52.699Z,1017.95
2017-05-27T00:19:52.724Z,1017.94
2017-05-27T00:20:52.748Z,1017.9
2017-05-27T00:21:52.772Z,1017.97
2017-05-27T00:22:52.797Z,1017.95
2017-05-27T00:23:52.820Z,1017.96
2017-05-27T00:24:52.844Z,1017.99
2017-05-27T00:25:52.868Z,1017.96
2017-05-27T00:26:52.893Z,1018
2017-05-27T00:27:52.918Z,1017.99
2017-05-27T00:28:52.991Z,1017.98
2017-05-27T00:29:53.016Z,1017.97
2017-05-27T00:30:52.990Z,1018.01
2017-05-27T00:31:53.013Z,1018.04
2017-05-27T00:32:53.038Z,1018.04
2017-05-27T00:33:53.062Z,1018.02
2017-05-27T00:34:53.087Z,1018
2017-05-27T00:35:53.110Z,1018.06
2017-05-27T00:36:53.135Z,1018.05
2017-05-27T00:37:53.159Z,1018.09
2017-05-27T00:38:53.183Z,1018.06
2017-05-27T00:39:53.206Z,1018.07
2017-05-27T00:40:53.231Z,1018.05
2017-05-27T00:41:53.255Z,1018.07
2017-05-27T00:42:53.279Z,1018.09
2017-05-27T00:44:53.328Z,1018.06
2017-05-27T00:45:53.352Z,1018.04
2017-05-27T00:46:53.375Z,1018.06
2017-05-27T00:47:53.400Z,1018.05
2017-05-27T00:48:53.424Z,1018.05
2017-05-27T00:49:53.448Z,1018.1
2017-05-27T00:50:53.473Z,1018.1
2017-05-27T00:51:53.556Z,1018.14
2017-05-27T00:52:53.520Z,1018.08
2017-05-27T00:53:53.544Z,1018.14
2017-05-27T00:54:53.568Z,1018.13
2017-05-27T00:55:53.592Z,1018.19
2017-05-27T00:56:53.616Z,1018.2
2017-05-27T00:57:53.640Z,1018.23
2017-05-27T00:58:53.664Z,1018.25
2017-05-27T01:00:53.713Z,1018.23
2017-05-27T01:01:53.736Z,1018.24
2017-05-27T01:02:53.760Z,1018.22
2017-05-27T01:03:53.784Z,1018.24
2017-05-27T01:04:53.808Z,1018.21
2017-05-27T01:05:53.832Z,1018.21
2017-05-27T01:06:53.856Z,1018.22
2017-05-27T01:07:53.881Z,1018.22
2017-05-27T01:08:53.904Z,1018.21
2017-05-27T01:09:53.928Z,1018.25
2017-05-27T01:10:53.952Z,1018.23
2017-05-27T01:11:53.975Z,1018.28
2017-05-27T01:12:53.999Z,1018.29
2017-05-27T01:13:54.024Z,1018.28
2017-05-27T01:14:54.048Z,1018.3
2017-05-27T01:16:54.095Z,1018.32
2017-05-27T01:17:54.118Z,1018.31
2017-05-27T01:18:54.144Z,1018.32
2017-05-27T01:19:54.167Z,1018.33
2017-05-27T01:20:54.190Z,1018.3
2017-05-27T01:21:54.215Z,1018.3
2017-05-27T01:22:54.239Z,1018.33
2017-05-27T01:23:54.262Z,1018.32
2017-05-27T01:24:54.286Z,1018.37
2017-05-27T01:25:54.311Z,1018.35
2017-05-27T01:26:54.333Z,1018.34
2017-05-27T01:27:54.358Z,1018.4
2017-05-27T01:28:54.382Z,1018.36
2017-05-27T01:29:54.406Z,1018.42
2017-05-27T01:30:54.429Z,1018.38
2017-05-27T01:32:54.477Z,1018.41
2017-05-27T01:33:54.501Z,1018.43
2017-05-27T01:34:54.524Z,1018.44
2017-05-27T01:35:54.548Z,1018.43
2017-05-27T01:36:54.572Z,1018.44
2017-05-27T01:37:54.595Z,1018.42
2017-05-27T01:38:54.619Z,1018.43
2017-05-27T01:39:54.643Z,1018.44
2017-05-27T01:40:54.667Z,1018.45
2017-05-27T01:41:54.690Z,1018.46
2017-05-27T01:42:54.714Z,1018.42
2017-05-27T01:43:54.738Z,1018.46
2017-05-27T01:44:54.762Z,1018.44
2017-05-27T01:45:54.786Z,1018.47
2017-05-27T01:47:54.836Z,1018.49
2017-05-27T01:48:54.857Z,1018.47
2017-05-27T01:49:54.882Z,1018.54
2017-05-27T01:50:54.905Z,1018.49
2017-05-27T01:51:54.929Z,1018.48
2017-05-27T01:52:54.953Z,1018.49
2017-05-27T01:53:54.976Z,1018.51
2017-05-27T01:54:55.000Z,1018.46
2017-05-27T01:55:55.023Z,1018.47
2017-05-27T01:56:55.048Z,1018.45
2017-05-27T01:57:55.071Z,1018.46
2017-05-27T01:58:55.095Z,1018.49
2017-05-27T01:59:55.118Z,1018.48
2017-05-27T02:00:55.142Z,1018.45
2017-05-27T02:01:55.165Z,1018.48
2017-05-27T02:02:55.190Z,1018.49
2017-05-27T02:03:55.270Z,1018.5
2017-05-27T02:04:55.236Z,1018.5
2017-05-27T02:05:55.260Z,1018.5
2017-05-27T02:06:55.283Z,1018.47
2017-05-27T02:07:55.307Z,1018.42
2017-05-27T02:08:55.330Z,1018.46
2017-05-27T02:09:55.355Z,1018.42
2017-05-27T02:10:55.377Z,1018.42
2017-05-27T02:11:55.401Z,1018.43
2017-05-27T02:12:55.425Z,1018.45
2017-05-27T02:13:55.449Z,1018.43
2017-05-27T02:14:55.471Z,1018.48
2017-05-27T02:15:55.495Z,1018.44
2017-05-27T02:16:55.519Z,1018.46
2017-05-27T02:17:55.542Z,1018.47
2017-05-27T02:19:55.589Z,1018.46
2017-05-27T02:20:55.613Z,1018.48
2017-05-27T02:21:55.635Z,1018.46
2017-05-27T02:22:55.659Z,1018.44
2017-05-27T02:23:55.684Z,1018.4
2017-05-27T02:24:55.707Z,1018.41
2017-05-27T02:25:55.728Z,1018.41
2017-05-27T02:26:55.752Z,1018.43
2017-05-27T02:27:55.776Z,1018.42
2017-05-27T02:28:55.799Z,1018.47
2017-05-27T02:29:55.822Z,1018.49
2017-05-27T02:30:55.846Z,1018.51
2017-05-27T02:31:55.872Z,1018.52
2017-05-27T02:32:55.893Z,1018.51
2017-05-27T02:33:55.916Z,1018.5
2017-05-27T02:35:55.963Z,1018.56
2017-05-27T02:36:55.987Z,1018.54
2017-05-27T02:37:56.011Z,1018.57
2017-05-27T02:38:56.033Z,1018.54
2017-05-27T02:39:56.056Z,1018.52
2017-05-27T02:40:56.081Z,1018.56
2017-05-27T02:41:56.103Z,1018.53
2017-05-27T02:42:56.127Z,1018.55
2017-05-27T02:43:56.150Z,1018.53
2017-05-27T02:44:56.172Z,1018.54
2017-05-27T02:45:56.196Z,1018.53
2017-05-27T02:46:56.220Z,1018.52
2017-05-27T02:47:56.242Z,1018.58
2017-05-27T02:48:56.267Z,1018.55
2017-05-27T02:49:56.290Z,1018.53
2017-05-27T02:51:56.336Z,1018.57
2017-05-27T02:52:56.360Z,1018.59
2017-05-27T02:53:56.383Z,1018.6
2017-05-27T02:54:56.406Z,1018.64
2017-05-27T02:55:56.428Z,1018.6
2017-05-27T02:56:56.452Z,1018.63
2017-05-27T02:57:56.476Z,1018.62
2017-05-27T02:58:56.498Z,1018.61
2017-05-27T02:59:56.522Z,1018.61
2017-05-27T03:00:56.544Z,1018.58
2017-05-27T03:01:56.566Z,1018.63
2017-05-27T03:02:56.591Z,1018.62
2017-05-27T03:03:56.614Z,1018.58
2017-05-27T03:04:56.638Z,1018.64
2017-05-27T03:05:56.660Z,1018.66
2017-05-27T03:07:56.707Z,1018.66
2017-05-27T03:08:56.731Z,1018.71
2017-05-27T03:09:56.753Z,1018.69
2017-05-27T03:10:56.776Z,1018.69
2017-05-27T03:11:56.800Z,1018.72
2017-05-27T03:12:56.825Z,1018.73
2017-05-27T03:13:56.846Z,1018.69
2017-05-27T03:14:56.873Z,1018.72
2017-05-27T03:15:56.893Z,1018.69
2017-05-27T03:16:56.915Z,1018.7
2017-05-27T03:17:56.940Z,1018.7
2017-05-27T03:18:56.962Z,1018.69
2017-05-27T03:19:56.986Z,1018.71
2017-05-27T03:20:57.009Z,1018.73
2017-05-27T03:22:57.057Z,1018.72
2017-05-27T03:23:57.079Z,1018.74
2017-05-27T03:24:57.102Z,1018.73
2017-05-27T03:25:57.125Z,1018.77
2017-05-27T03:26:57.149Z,1018.75
2017-05-27T03:27:57.171Z,1018.77
2017-05-27T03:28:57.194Z,1018.74
2017-05-27T03:29:57.268Z,1018.79
2017-05-27T03:30:57.239Z,1018.79
2017-05-27T03:31:57.264Z,1018.74
2017-05-27T03:32:57.291Z,1018.77
2017-05-27T03:33:57.310Z,1018.79
2017-05-27T03:34:57.334Z,1018.8
2017-05-27T03:35:57.357Z,1018.8
2017-05-27T03:36:57.382Z,1018.79
2017-05-27T03:37:57.405Z,1018.77
2017-05-27T03:38:57.427Z,1018.79
2017-05-27T03:39:57.451Z,1018.84
2017-05-27T03:40:57.473Z,1018.81
2017-05-27T03:41:57.496Z,1018.81
2017-05-27T03:42:57.519Z,1018.85
2017-05-27T03:43:57.543Z,1018.83
2017-05-27T03:44:57.566Z,1018.82
2017-05-27T03:45:57.588Z,1018.82
2017-05-27T03:46:57.612Z,1018.85
2017-05-27T03:47:57.635Z,1018.86
2017-05-27T03:48:57.659Z,1018.84
2017-05-27T03:49:57.682Z,1018.86
2017-05-27T03:50:57.705Z,1018.92
2017-05-27T03:51:57.728Z,1018.9
2017-05-27T03:52:57.751Z,1018.93
2017-05-27T03:54:57.799Z,1018.9
2017-05-27T03:55:57.822Z,1018.89
2017-05-27T03:56:57.844Z,1018.93
2017-05-27T03:57:57.868Z,1018.94
2017-05-27T03:58:57.892Z,1018.93
2017-05-27T03:59:57.916Z,1018.94
2017-05-27T04:00:57.938Z,1018.99
2017-05-27T04:01:57.962Z,1018.97
2017-05-27T04:02:57.985Z,1019.04
2017-05-27T04:03:58.008Z,1019.04
2017-05-27T04:04:58.032Z,1019.02
2017-05-27T04:05:58.055Z,1018.96
2017-05-27T04:06:58.079Z,1018.98
2017-05-27T04:07:58.101Z,1019.01
2017-05-27T04:08:58.124Z,1019.05
2017-05-27T04:10:58.173Z,1019.16
2017-05-27T04:11:58.195Z,1019.16
2017-05-27T04:12:58.222Z,1019.13
2017-05-27T04:13:58.244Z,1019.11
2017-05-27T04:14:58.268Z,1019.06
2017-05-27T04:15:58.292Z,1019.07
2017-05-27T04:16:58.315Z,1019.06
2017-05-27T04:17:58.342Z,1019.08
2017-05-27T04:18:58.363Z,1019.11
2017-05-27T04:19:58.388Z,1019.09
2017-05-27T04:20:58.412Z,1019.07
2017-05-27T04:21:58.437Z,1019.03
2017-05-27T04:22:58.460Z,1019.04
2017-05-27T04:23:58.484Z,1019.07
2017-05-27T04:24:58.508Z,1019.08
2017-05-27T04:26:58.555Z,1019.09
2017-05-27T04:27:58.579Z,1019.05
2017-05-27T04:28:58.604Z,1019.08
2017-05-27T04:29:58.627Z,1019.08
2017-05-27T04:30:58.652Z,1019.11
2017-05-27T04:31:58.676Z,1019.12
2017-05-27T04:32:58.700Z,1019.12
2017-05-27T04:33:58.724Z,1019.23
2017-05-27T04:34:58.749Z,1019.42
2017-05-27T04:35:58.773Z,1019.6
2017-05-27T04:36:58.796Z,1019.57
2017-05-27T04:37:58.821Z,1019.59
2017-05-27T04:38:58.846Z,1019.66
2017-05-27T04:39:58.872Z,1019.68
2017-05-27T04:40:58.897Z,1019.68
2017-05-27T04:42:58.951Z,1019.68
2017-05-27T04:43:58.976Z,1019.69
2017-05-27T04:44:59.003Z,1019.72
2017-05-27T04:45:59.030Z,1019.73
2017-05-27T04:46:59.058Z,1019.7
2017-05-27T04:47:59.085Z,1019.71
2017-05-27T04:48:59.114Z,1019.64
2017-05-27T04:49:59.144Z,1019.7
2017-05-27T04:50:59.173Z,1019.68
2017-05-27T04:51:59.202Z,1019.72
2017-05-27T04:52:59.233Z,1019.66
2017-05-27T04:53:59.262Z,1019.62
2017-05-27T04:54:59.293Z,1019.57
2017-05-27T04:55:59.324Z,1019.58
2017-05-27T04:57:59.388Z,1019.61
2017-05-27T04:58:59.418Z,1019.64
2017-05-27T04:59:59.450Z,1019.65
2017-05-27T05:00:59.481Z,1019.67
2017-05-27T05:01:59.515Z,1019.7
2017-05-27T05:02:59.547Z,1019.72
2017-05-27T05:03:59.579Z,1019.71
2017-05-27T05:04:59.613Z,1019.77
2017-05-27T05:05:59.645Z,1019.81
2017-05-27T05:06:59.685Z,1019.8
2017-05-27T05:07:59.714Z,1019.76
2017-05-27T05:08:59.745Z,1019.81
2017-05-27T05:09:59.779Z,1019.84
2017-05-27T05:10:59.813Z,1019.83
2017-05-27T05:11:59.848Z,1019.83
2017-05-27T05:12:59.882Z,1019.88
2017-05-27T05:13:59.916Z,1019.87
2017-05-27T05:14:59.950Z,1019.91
2017-05-27T05:15:59.985Z,1020.02
2017-05-27T05:17:00.020Z,1020.05
2017-05-27T05:18:00.054Z,1020.1
2017-05-27T05:19:00.089Z,1020.2
2017-05-27T05:20:00.124Z,1020.2
2017-05-27T05:21:00.160Z,1020.22
2017-05-27T05:22:00.195Z,1020.16
2017-05-27T05:23:00.230Z,1020.22
2017-05-27T05:24:00.266Z,1020.21
2017-05-27T05:25:00.300Z,1020.23
2017-05-27T05:26:00.336Z,1020.27
2017-05-27T05:27:00.372Z,1020.21
2017-05-27T05:28:00.407Z,1020.22
2017-05-27T05:30:00.479Z,1020.19
2017-05-27T05:31:00.519Z,1020.22
2017-05-27T05:32:00.552Z,1020.25
2017-05-27T05:33:00.588Z,1020.23
2017-05-27T05:34:00.628Z,1020.23
2017-05-27T05:35:00.660Z,1020.27
2017-05-27T05:36:00.696Z,1020.29
2017-05-27T05:37:00.733Z,1020.3
2017-05-27T05:38:00.769Z,1020.23
2017-05-27T05:39:00.805Z,1020.3
2017-05-27T05:40:00.842Z,1020.33
2017-05-27T05:41:01.129Z,1020.32
2017-05-27T05:42:00.916Z,1020.34
2017-05-27T05:43:00.952Z,1020.33
2017-05-27T05:44:00.989Z,1020.35
2017-05-27T05:46:01.063Z,1020.33
2017-05-27T05:47:01.100Z,1020.36
2017-05-27T05:48:01.137Z,1020.37
2017-05-27T05:49:01.175Z,1020.37
2017-05-27T05:50:01.210Z,1020.36
2017-05-27T05:51:01.249Z,1020.41
2017-05-27T05:52:01.285Z,1020.37
2017-05-27T05:53:01.323Z,1020.34
2017-05-27T05:54:01.359Z,1020.33
2017-05-27T05:55:01.397Z,1020.36
2017-05-27T05:56:01.435Z,1020.36
2017-05-27T05:57:01.472Z,1020.38
2017-05-27T05:58:01.511Z,1020.38
2017-05-27T05:59:01.547Z,1020.4
2017-05-27T06:00:01.585Z,1020.39
2017-05-27T06:02:01.659Z,1020.27
2017-05-27T06:03:01.697Z,1020.23
2017-05-27T06:04:01.734Z,1020.23
2017-05-27T06:05:01.773Z,1020.29
2017-05-27T06:06:01.810Z,1020.26
2017-05-27T06:07:01.848Z,1020.28
2017-05-27T06:08:01.887Z,1020.35
2017-05-27T06:09:01.925Z,1020.37
2017-05-27T06:10:01.963Z,1020.43
2017-05-27T06:11:02.001Z,1020.51
2017-05-27T06:12:02.038Z,1020.52
2017-05-27T06:13:02.076Z,1020.56
2017-05-27T06:14:02.115Z,1020.63
2017-05-27T06:15:02.153Z,1020.66
2017-05-27T06:16:02.191Z,1020.66
2017-05-27T06:18:02.270Z,1020.85
2017-05-27T06:19:02.306Z,1020.92
2017-05-27T06:20:02.344Z,1020.93
2017-05-27T06:21:02.382Z,1020.94
2017-05-27T06:22:02.420Z,1021.03
2017-05-27T06:23:02.459Z,1021.02
2017-05-27T06:24:02.497Z,1021.02
2017-05-27T06:25:02.535Z,1021.05
2017-05-27T06:26:02.573Z,1020.97
2017-05-27T06:27:02.612Z,1020.94
2017-05-27T06:28:02.651Z,1020.98
2017-05-27T06:29:02.689Z,1020.95
2017-05-27T06:30:02.728Z,1020.96
2017-05-27T06:31:02.767Z,1020.99
2017-05-27T06:33:02.844Z,1021.1
2017-05-27T06:34:02.883Z,1021.11
2017-05-27T06:35:02.922Z,1021.07
2017-05-27T06:36:02.961Z,1021.1
2017-05-27T06:37:02.999Z,1021.08
2017-05-27T06:38:03.038Z,1021.07
2017-05-27T06:39:03.088Z,1021.14
2017-05-27T06:40:03.117Z,1021.1
2017-05-27T06:41:03.156Z,1021.12
2017-05-27T06:42:03.194Z,1021.16
2017-05-27T06:43:03.235Z,1021.14
2017-05-27T06:44:03.275Z,1021.17
2017-05-27T06:45:03.313Z,1021.2
2017-05-27T06:46:03.353Z,1021.24
2017-05-27T06:47:03.392Z,1021.21
2017-05-27T06:48:03.432Z,1021.27
2017-05-27T06:49:03.471Z,1021.29
2017-05-27T06:50:03.510Z,1021.35
2017-05-27T06:51:03.551Z,1021.4
2017-05-27T06:52:03.590Z,1021.43
2017-05-27T06:53:03.630Z,1021.43
2017-05-27T06:54:03.670Z,1021.5
2017-05-27T06:55:03.759Z,1021.46
2017-05-27T06:56:03.749Z,1021.52
2017-05-27T06:57:03.789Z,1021.54
2017-05-27T06:58:03.829Z,1021.57
2017-05-27T06:59:03.871Z,1021.58
2017-05-27T07:00:03.910Z,1021.59
2017-05-27T07:01:03.949Z,1021.71
2017-05-27T07:02:03.989Z,1021.75
2017-05-27T07:03:04.028Z,1021.85
2017-05-27T07:05:04.108Z,1021.95
2017-05-27T07:06:04.150Z,1021.99
2017-05-27T07:07:04.189Z,1022.03
2017-05-27T07:08:04.229Z,1022.06
2017-05-27T07:09:04.269Z,1022.14
2017-05-27T07:10:04.309Z,1022.17
2017-05-27T07:11:04.348Z,1022.18
2017-05-27T07:12:04.387Z,1022.2
2017-05-27T07:13:04.428Z,1022.22
2017-05-27T07:14:04.467Z,1022.26
2017-05-27T07:15:04.508Z,1022.27
2017-05-27T07:16:04.548Z,1022.3
2017-05-27T07:17:04.587Z,1022.35
2017-05-27T07:18:04.626Z,1022.34
2017-05-27T07:19:04.667Z,1022.37
2017-05-27T07:21:04.747Z,1022.43
2017-05-27T07:22:04.785Z,1022.44
2017-05-27T07:23:04.826Z,1022.39
2017-05-27T07:24:04.865Z,1022.37
2017-05-27T07:25:04.904Z,1022.22
2017-05-27T07:26:04.945Z,1022.19
2017-05-27T07:27:04.985Z,1022.1
2017-05-27T07:28:05.025Z,1021.95
2017-05-27T07:29:05.064Z,1021.78
2017-05-27T07:30:05.103Z,1021.72
2017-05-27T07:31:05.143Z,1021.57
2017-05-27T07:32:05.183Z,1021.51
2017-05-27T07:33:05.222Z,1021.55
2017-05-27T07:34:05.262Z,1021.64
2017-05-27T07:35:05.301Z,1021.56
2017-05-27T07:37:05.379Z,1021.16
2017-05-27T07:38:05.419Z,1020.82
2017-05-27T07:39:05.458Z,1020.7
2017-05-27T07:40:05.497Z,1020.7
2017-05-27T07:41:05.538Z,1020.68
2017-05-27T07:42:05.575Z,1020.68
2017-05-27T07:43:05.614Z,1020.65
2017-05-27T07:44:05.654Z,1020.7
2017-05-27T07:45:05.692Z,1020.69
2017-05-27T07:46:05.732Z,1020.66
2017-05-27T07:47:05.820Z,1020.68
2017-05-27T07:48:05.810Z,1020.68
2017-05-27T07:49:05.850Z,1020.7
2017-05-27T07:50:05.890Z,1020.68
2017-05-27T07:51:05.929Z,1020.65
2017-05-27T07:53:06.009Z,1020.65
2017-05-27T07:54:06.046Z,1020.63
2017-05-27T07:55:06.085Z,1020.63
2017-05-27T07:56:06.125Z,1020.63
2017-05-27T07:57:06.165Z,1020.65
2017-05-27T07:58:06.203Z,1020.63
2017-05-27T07:59:06.243Z,1020.62
2017-05-27T08:00:06.282Z,1020.59
2017-05-27T08:01:06.322Z,1020.66
2017-05-27T08:02:06.360Z,1020.75
2017-05-27T08:03:06.400Z,1020.85
2017-05-27T08:04:06.439Z,1020.82
2017-05-27T08:05:06.478Z,1020.77
2017-05-27T08:06:06.518Z,1020.74
2017-05-27T08:08:06.646Z,1020.74
2017-05-27T08:09:06.636Z,1020.73
2017-05-27T08:10:06.676Z,1020.67
2017-05-27T08:11:06.715Z,1020.64
2017-05-27T08:12:06.754Z,1020.61
2017-05-27T08:13:06.792Z,1020.62
2017-05-27T08:14:06.831Z,1020.6
2017-05-27T08:15:06.870Z,1020.56
2017-05-27T08:16:06.910Z,1020.53
2017-05-27T08:17:06.950Z,1020.5
2017-05-27T08:18:06.988Z,1020.55
2017-05-27T08:19:07.027Z,1020.52
2017-05-27T08:20:07.066Z,1020.55
2017-05-27T08:21:07.105Z,1020.52
2017-05-27T08:22:07.145Z,1020.55
2017-05-27T08:23:07.185Z,1020.52
2017-05-27T08:24:07.222Z,1020.48
2017-05-27T08:25:07.261Z,1020.43
2017-05-27T08:26:07.301Z,1020.42
2017-05-27T08:27:07.339Z,1020.4
2017-05-27T08:28:07.378Z,1020.42
2017-05-27T08:29:07.418Z,1020.47
2017-05-27T08:30:07.525Z,1020.57
2017-05-27T08:31:07.495Z,1020.65
2017-05-27T08:32:07.534Z,1020.69
2017-05-27T08:33:07.572Z,1020.73
2017-05-27T08:34:07.611Z,1020.68
2017-05-27T08:35:07.650Z,1020.66
2017-05-27T08:36:07.687Z,1020.69
2017-05-27T08:37:07.727Z,1020.6
2017-05-27T08:38:07.765Z,1020.56
2017-05-27T08:40:07.842Z,1020.51
2017-05-27T08:41:07.880Z,1020.52
2017-05-27T08:42:07.918Z,1020.46
2017-05-27T08:43:07.956Z,1020.41
2017-05-27T08:44:07.995Z,1020.39
2017-05-27T08:45:08.034Z,1020.39
2017-05-27T08:46:08.071Z,1020.35
2017-05-27T08:47:08.110Z,1020.23
2017-05-27T08:48:08.148Z,1020.18
2017-05-27T08:49:08.185Z,1020.13
2017-05-27T08:50:08.223Z,1020.13
2017-05-27T08:51:08.261Z,1020.09
2017-05-27T08:52:08.299Z,1020.14
2017-05-27T08:53:08.337Z,1020.09
2017-05-27T08:54:08.375Z,1020.11
2017-05-27T08:56:08.452Z,1020.06
2017-05-27T08:57:08.489Z,1020
2017-05-27T08:58:08.528Z,1020.03
2017-05-27T08:59:08.566Z,1020.03
2017-05-27T09:00:08.603Z,1020.03
2017-05-27T09:01:08.640Z,1020
2017-05-27T09:02:08.678Z,1020.02
2017-05-27T09:03:08.717Z,1019.98
2017-05-27T09:04:08.754Z,1019.99
2017-05-27T09:05:08.791Z,1019.98
2017-05-27T09:06:08.829Z,1020.03
2017-05-27T09:07:08.867Z,1020.03
2017-05-27T09:08:08.903Z,1020.03
2017-05-27T09:09:08.941Z,1020.02
2017-05-27T09:10:09.001Z,1020
2017-05-27T09:12:09.052Z,1020
2017-05-27T09:13:09.090Z,1020
2017-05-27T09:14:09.127Z,1019.97
2017-05-27T09:15:09.164Z,1020.01
2017-05-27T09:16:09.251Z,1020.04
2017-05-27T09:17:09.238Z,1020.06
2017-05-27T09:18:09.275Z,1020.06
2017-05-27T09:19:09.312Z,1020.05
2017-05-27T09:20:09.349Z,1020
2017-05-27T09:21:09.386Z,1019.98
2017-05-27T09:22:09.422Z,1019.98
2017-05-27T09:23:09.459Z,1019.97
2017-05-27T09:24:09.495Z,1019.94
2017-05-27T09:25:09.533Z,1019.94
2017-05-27T09:26:09.568Z,1019.93
2017-05-27T09:28:09.642Z,1019.93
2017-05-27T09:29:09.679Z,1019.88
2017-05-27T09:30:09.715Z,1019.87
2017-05-27T09:31:09.751Z,1019.91
2017-05-27T09:32:09.788Z,1019.85
2017-05-27T09:33:09.823Z,1019.84
2017-05-27T09:34:09.861Z,1019.83
2017-05-27T09:35:09.898Z,1019.81
2017-05-27T09:36:09.934Z,1019.77
2017-05-27T09:37:09.970Z,1019.78
2017-05-27T09:38:10.006Z,1019.78
2017-05-27T09:39:10.044Z,1019.75
2017-05-27T09:40:10.080Z,1019.73
2017-05-27T09:41:10.117Z,1019.72
2017-05-27T09:43:10.190Z,1019.7
2017-05-27T09:44:10.225Z,1019.69
2017-05-27T09:45:10.262Z,1019.71
2017-05-27T09:46:10.299Z,1019.59
2017-05-27T09:47:10.335Z,1019.68
2017-05-27T09:48:10.370Z,1019.7
2017-05-27T09:49:10.407Z,1019.64
2017-05-27T09:50:10.444Z,1019.6
2017-05-27T09:51:10.478Z,1019.59
2017-05-27T09:52:10.515Z,1019.58
2017-05-27T09:53:10.551Z,1019.61
2017-05-27T09:54:10.587Z,1019.62
2017-05-27T09:55:10.623Z,1019.66
2017-05-27T09:56:10.658Z,1019.63
2017-05-27T09:57:10.694Z,1019.6
2017-05-27T09:58:10.731Z,1019.63
2017-05-27T09:59:10.765Z,1019.58
2017-05-27T10:00:10.801Z,1019.59
2017-05-27T10:01:10.837Z,1019.62
2017-05-27T10:02:10.871Z,1019.54
2017-05-27T10:03:10.907Z,1019.55
2017-05-27T10:04:10.943Z,1019.51
2017-05-27T10:05:10.979Z,1019.56
2017-05-27T10:06:11.021Z,1019.53
2017-05-27T10:07:11.049Z,1019.52
2017-05-27T10:08:11.085Z,1019.5
2017-05-27T10:09:11.121Z,1019.44
2017-05-27T10:10:11.156Z,1019.48
2017-05-27T10:11:11.191Z,1019.41
2017-05-27T10:12:11.227Z,1019.44
2017-05-27T10:13:11.261Z,1019.48
2017-05-27T10:15:11.331Z,1019.49
2017-05-27T10:16:11.367Z,1019.42
2017-05-27T10:17:11.400Z,1019.45
2017-05-27T10:18:11.437Z,1019.43
2017-05-27T10:19:11.472Z,1019.42
2017-05-27T10:20:11.508Z,1019.37
2017-05-27T10:21:11.540Z,1019.42
2017-05-27T10:22:11.576Z,1019.38
2017-05-27T10:23:11.611Z,1019.4
2017-05-27T10:24:11.646Z,1019.43
2017-05-27T10:25:11.680Z,1019.46
2017-05-27T10:26:11.718Z,1019.41
2017-05-27T10:27:11.750Z,1019.37
2017-05-27T10:28:11.785Z,1019.32
2017-05-27T10:29:11.821Z,1019.32
2017-05-27T10:31:11.890Z,1019.33
2017-05-27T10:32:11.924Z,1019.32
2017-05-27T10:33:11.959Z,1019.34
2017-05-27T10:34:11.994Z,1019.38
2017-05-27T10:35:12.028Z,1019.32
2017-05-27T10:36:12.063Z,1019.3
2017-05-27T10:37:12.098Z,1019.35
2017-05-27T10:38:12.132Z,1019.34
2017-05-27T10:39:12.166Z,1019.31
2017-05-27T10:40:12.201Z,1019.32
2017-05-27T10:41:12.236Z,1019.31
2017-05-27T10:42:12.270Z,1019.37
2017-05-27T10:43:12.304Z,1019.31
2017-05-27T10:44:12.339Z,1019.34
2017-05-27T10:45:12.373Z,1019.31
2017-05-27T10:47:12.441Z,1019.29
2017-05-27T10:48:12.475Z,1019.32
2017-05-27T10:49:12.511Z,1019.33
2017-05-27T10:50:12.543Z,1019.27
2017-05-27T10:51:12.577Z,1019.27
2017-05-27T10:52:12.611Z,1019.29
2017-05-27T10:53:12.646Z,1019.25
2017-05-27T10:54:12.678Z,1019.31
2017-05-27T10:55:12.713Z,1019.31
2017-05-27T10:56:12.747Z,1019.3
2017-05-27T10:57:12.779Z,1019.32
2017-05-27T10:58:12.813Z,1019.28
2017-05-27T10:59:12.847Z,1019.27
2017-05-27T11:00:12.881Z,1019.28
2017-05-27T11:01:12.913Z,1019.28
2017-05-27T11:03:12.980Z,1019.27
2017-05-27T11:04:13.013Z,1019.22
2017-05-27T11:05:13.045Z,1019.24
2017-05-27T11:06:13.080Z,1019.21
2017-05-27T11:07:13.113Z,1019.19
2017-05-27T11:08:13.145Z,1019.18
2017-05-27T11:09:13.179Z,1019.14
2017-05-27T11:10:13.213Z,1019.13
2017-05-27T11:11:13.245Z,1019.18
2017-05-27T11:12:13.328Z,1019.19
2017-05-27T11:13:13.310Z,1019.16
2017-05-27T11:14:13.344Z,1019.13
2017-05-27T11:15:13.377Z,1019.17
2017-05-27T11:16:13.409Z,1019.11
2017-05-27T11:18:13.475Z,1019.1
2017-05-27T11:19:13.508Z,1019.09
2017-05-27T11:20:13.540Z,1019.09
2017-05-27T11:21:13.573Z,1019.05
2017-05-27T11:22:13.607Z,1019.06
2017-05-27T11:23:13.638Z,1019
2017-05-27T11:24:13.671Z,1018.99
2017-05-27T11:25:13.704Z,1018.99
2017-05-27T11:26:13.735Z,1019.03
2017-05-27T11:27:13.768Z,1019
2017-05-27T11:28:13.801Z,1018.96
2017-05-27T11:29:13.834Z,1019.01
2017-05-27T11:30:13.865Z,1018.99
2017-05-27T11:31:13.897Z,1018.95
2017-05-27T11:32:13.930Z,1018.96
2017-05-27T11:33:13.963Z,1018.96
2017-05-27T11:34:13.994Z,1018.95
2017-05-27T11:35:14.027Z,1018.94
2017-05-27T11:36:14.058Z,1018.98
2017-05-27T11:37:14.090Z,1018.95
2017-05-27T11:38:14.122Z,1018.9
2017-05-27T11:39:14.154Z,1018.91
2017-05-27T11:40:14.188Z,1018.93
2017-05-27T11:41:14.219Z,1018.9
2017-05-27T11:42:14.250Z,1018.85
2017-05-27T11:43:14.283Z,1018.8
2017-05-27T11:44:14.315Z,1018.81
2017-05-27T11:45:14.347Z,1018.79
2017-05-27T11:46:14.379Z,1018.82
2017-05-27T11:47:14.411Z,1018.76
2017-05-27T11:48:14.441Z,1018.82
2017-05-27T11:50:14.507Z,1018.75
2017-05-27T11:51:14.538Z,1018.79
2017-05-27T11:52:14.570Z,1018.78
2017-05-27T11:53:14.602Z,1018.75
2017-05-27T11:54:14.634Z,1018.73
2017-05-27T11:55:14.665Z,1018.78
2017-05-27T11:56:14.697Z,1018.81
2017-05-27T11:57:14.729Z,1018.76
2017-05-27T11:58:14.760Z,1018.77
2017-05-27T11:59:14.791Z,1018.75
2017-05-27T12:00:14.823Z,1018.77
2017-05-27T12:01:14.855Z,1018.74
2017-05-27T12:02:14.887Z,1018.68
2017-05-27T12:03:14.918Z,1018.74
2017-05-27T12:04:15.250Z,1018.68
2017-05-27T12:06:15.013Z,1018.68
2017-05-27T12:07:15.043Z,1018.66
2017-05-27T12:08:15.075Z,1018.64
2017-05-27T12:09:15.106Z,1018.67
2017-05-27T12:10:15.140Z,1018.64
2017-05-27T12:11:15.170Z,1018.6
2017-05-27T12:12:15.209Z,1018.67
2017-05-27T12:13:15.233Z,1018.66
2017-05-27T12:14:15.264Z,1018.68
2017-05-27T12:15:15.297Z,1018.58
2017-05-27T12:16:15.328Z,1018.61
2017-05-27T12:17:15.359Z,1018.57
2017-05-27T12:18:15.390Z,1018.57
2017-05-27T12:19:15.422Z,1018.61
2017-05-27T12:20:15.454Z,1018.62
2017-05-27T12:22:15.516Z,1018.7
2017-05-27T12:23:15.548Z,1018.66
2017-05-27T12:24:15.580Z,1018.67
2017-05-27T12:25:15.611Z,1018.67
2017-05-27T12:26:15.642Z,1018.65
2017-05-27T12:27:15.673Z,1018.67
2017-05-27T12:28:15.706Z,1018.61
2017-05-27T12:29:15.737Z,1018.6
2017-05-27T12:30:15.768Z,1018.63
2017-05-27T12:31:15.799Z,1018.56
2017-05-27T12:32:15.830Z,1018.6
2017-05-27T12:33:15.862Z,1018.55
2017-05-27T12:34:15.894Z,1018.54
2017-05-27T12:35:15.926Z,1018.59
2017-05-27T12:36:15.956Z,1018.53
2017-05-27T12:38:16.021Z,1018.49
2017-05-27T12:39:16.051Z,1018.48
2017-05-27T12:40:16.080Z,1018.47
2017-05-27T12:41:16.112Z,1018.54
2017-05-27T12:42:16.144Z,1018.44
2017-05-27T12:43:16.174Z,1018.53
2017-05-27T12:44:16.206Z,1018.49
2017-05-27T12:45:16.237Z,1018.57
2017-05-27T12:46:16.269Z,1018.49
2017-05-27T12:47:16.300Z,1018.48
2017-05-27T12:48:16.331Z,1018.44
2017-05-27T12:49:16.362Z,1018.44